Time;durP1;ratioP1;P1;durP2;ratioP2;P2;SDS_P1;SDS_P2;PMS_P1;PMS_P2;Temp;Humidity;BMP_temperature;BMP_pressure;BME280_temperature;BME280_humidity;BME280_pressure;Samples;Min_cycle;Max_cycle;Signal;HPM_P1;HPM_P2
2021/07/22 00:00:23;;;;;;;14.80;8.52;;;;;;;17.73;96.16;101650.91;5011678;28;20104;-75
2021/07/22 00:02:50;;;;;;;15.20;8.10;;;;;;;17.72;96.23;101643.88;5012146;28;20041;-75
2021/07/22 00:05:16;;;;;;;18.42;8.85;;;;;;;17.73;96.66;101650.91;5023969;28;20079;-75
2021/07/22 00:07:42;;;;;;;13.13;8.48;;;;;;;17.69;96.90;101650.84;5026962;28;20108;-75
2021/07/22 00:10:08;;;;;;;14.25;8.82;;;;;;;17.71;96.99;101650.50;5028026;28;20033;-75
2021/07/22 00:12:34;;;;;;;14.98;8.30;;;;;;;17.82;96.67;101648.63;5024009;22;20041;-78
2021/07/22 00:14:59;;;;;;;17.70;8.35;;;;;;;17.83;96.00;101636.53;5020250;28;20048;-78
2021/07/22 00:17:25;;;;;;;14.00;8.55;;;;;;;17.78;96.01;101640.41;5017368;28;20059;-78
2021/07/22 00:19:50;;;;;;;12.90;7.95;;;;;;;17.82;95.95;101641.22;5009799;28;20052;-78
2021/07/22 00:22:16;;;;;;;11.25;7.65;;;;;;;17.83;96.12;101642.78;5015208;28;20029;-79
2021/07/22 00:24:41;;;;;;;14.73;7.90;;;;;;;17.84;95.61;101649.81;5009815;28;20167;-80
2021/07/22 00:27:06;;;;;;;13.25;8.23;;;;;;;17.88;95.98;101647.91;5009710;28;20469;-79
2021/07/22 00:29:35;;;;;;;13.95;7.80;;;;;;;17.92;95.32;101648.66;4994355;28;20038;-78
2021/07/22 00:32:01;;;;;;;16.50;8.63;;;;;;;17.84;95.87;101649.81;5015721;28;20383;-78
2021/07/22 00:34:27;;;;;;;14.35;8.10;;;;;;;17.91;96.32;101643.59;4999931;28;20062;-78
2021/07/22 00:36:52;;;;;;;16.50;7.95;;;;;;;17.79;95.61;101647.41;5000867;28;20026;-78
2021/07/22 00:39:18;;;;;;;12.98;7.78;;;;;;;17.75;94.91;101646.63;5019602;28;20034;-78
2021/07/22 00:41:48;;;;;;;16.75;7.55;;;;;;;17.80;95.35;101642.75;4997838;28;20037;-78
2021/07/22 00:44:13;;;;;;;13.70;7.65;;;;;;;17.84;95.31;101644.34;5011550;28;20034;-78
2021/07/22 00:46:40;;;;;;;12.18;6.88;;;;;;;17.96;94.89;101648.72;5013593;28;20442;-78
2021/07/22 00:49:10;;;;;;;15.52;7.45;;;;;;;17.95;93.91;101644.41;4993594;28;20085;-78
2021/07/22 00:51:38;;;;;;;13.73;7.18;;;;;;;17.91;93.92;101647.13;5009870;28;20053;-78
2021/07/22 00:54:04;;;;;;;10.48;6.50;;;;;;;17.99;94.05;101643.28;5018909;28;20044;-78
2021/07/22 00:56:31;;;;;;;12.00;7.38;;;;;;;18.01;93.69;101645.63;5018910;28;20042;-78
2021/07/22 00:58:57;;;;;;;15.45;7.72;;;;;;;18.01;93.83;101645.63;5020777;28;20029;-78
2021/07/22 01:01:23;;;;;;;12.30;6.55;;;;;;;17.96;93.41;101641.28;4998653;28;20025;-78
2021/07/22 01:03:49;;;;;;;14.32;7.25;;;;;;;18.02;93.45;101645.22;5002456;28;20056;-78
2021/07/22 01:06:15;;;;;;;12.27;6.95;;;;;;;17.92;92.97;101642.47;5017942;28;20033;-78
2021/07/22 01:08:40;;;;;;;9.38;6.50;;;;;;;17.86;92.94;101642.03;5022330;28;20033;-78
2021/07/22 01:11:16;;;;;;;16.08;6.35;;;;;;;17.77;92.58;101636.13;5009675;28;20041;-78
2021/07/22 01:13:43;;;;;;;13.13;6.70;;;;;;;17.69;92.96;101626.31;5023980;28;20033;-78
2021/07/22 01:16:08;;;;;;;11.13;6.53;;;;;;;17.62;92.87;101625.50;5018844;28;20034;-78
2021/07/22 01:18:34;;;;;;;10.43;6.30;;;;;;;17.44;92.42;101630.00;5018268;28;20037;-78
2021/07/22 01:21:01;;;;;;;16.65;7.50;;;;;;;17.37;93.39;101633.44;5019656;28;20054;-78
2021/07/22 01:23:27;;;;;;;8.45;6.20;;;;;;;17.37;93.04;101633.44;5018353;28;20045;-78
2021/07/22 01:26:18;;;;;;;10.68;6.95;;;;;;;17.35;92.82;101627.59;5015732;28;20034;-78
2021/07/22 01:28:46;;;;;;;11.57;6.72;;;;;;;17.29;93.27;101642.72;5002767;28;20034;-78
2021/07/22 01:31:12;;;;;;;11.85;6.78;;;;;;;17.19;93.92;101637.94;5006483;28;20064;-79
2021/07/22 01:33:38;;;;;;;13.35;6.82;;;;;;;17.12;93.85;101635.97;5021885;28;20038;-79
2021/07/22 01:36:04;;;;;;;13.55;6.47;;;;;;;16.88;94.06;101631.03;5000255;28;20526;-79
2021/07/22 01:38:30;;;;;;;12.90;6.20;;;;;;;16.98;93.91;101624.91;4999707;28;20029;-79
2021/07/22 01:40:55;;;;;;;10.75;6.50;;;;;;;16.77;94.36;101632.88;5013170;28;20026;-79
2021/07/22 01:43:21;;;;;;;14.27;6.60;;;;;;;16.83;95.26;101625.16;5019772;28;20490;-78
2021/07/22 01:45:50;;;;;;;13.45;7.18;;;;;;;16.85;94.33;101628.28;5000996;28;20050;-79
2021/07/22 01:48:17;;;;;;;12.40;6.72;;;;;;;16.86;94.46;101630.63;5018993;28;20058;-79
2021/07/22 01:50:44;;;;;;;11.55;6.40;;;;;;;16.71;94.81;101630.84;5002719;28;20017;-79
2021/07/22 01:53:09;;;;;;;11.63;6.00;;;;;;;16.68;95.04;101623.44;5021076;28;20053;-79
2021/07/22 01:55:36;;;;;;;10.38;6.53;;;;;;;16.73;94.66;101628.53;5011604;28;20069;-79
2021/07/22 01:58:02;;;;;;;11.55;6.35;;;;;;;16.69;95.12;101625.00;5010705;28;20034;-79
2021/07/22 02:00:35;;;;;;;13.32;6.93;;;;;;;16.59;95.52;101629.16;5003894;28;20026;-78
2021/07/22 02:03:01;;;;;;;16.05;7.20;;;;;;;16.54;95.86;101626.78;5023645;28;20416;-79
2021/07/22 02:05:49;;;;;;;12.68;7.10;;;;;;;16.61;95.11;101626.06;5011497;28;20042;-79
2021/07/22 02:08:16;;;;;;;11.20;6.75;;;;;;;16.56;95.82;101627.19;5019926;28;20034;-79
2021/07/22 02:10:42;;;;;;;10.52;6.47;;;;;;;16.54;95.89;101626.78;5002822;28;20025;-79
2021/07/22 02:13:09;;;;;;;11.98;7.28;;;;;;;16.56;95.92;101629.91;4998145;28;20034;-79
2021/07/22 02:15:42;;;;;;;13.60;7.80;;;;;;;16.51;95.92;101629.47;5020027;28;20052;-78
2021/07/22 02:18:10;;;;;;;14.85;7.20;;;;;;;16.52;95.60;101620.13;5021135;28;20053;-79
2021/07/22 02:20:37;;;;;;;11.90;7.07;;;;;;;16.54;95.71;101625.97;5019031;28;20041;-79
2021/07/22 02:23:03;;;;;;;13.27;7.70;;;;;;;16.46;95.24;101621.59;5005378;28;20025;-78
2021/07/22 02:25:47;;;;;;;12.30;7.70;;;;;;;16.36;96.55;101633.09;5017512;28;20076;-79
2021/07/22 02:28:13;;;;;;;10.93;7.28;;;;;;;16.44;96.02;101626.59;5004605;28;20036;-78
2021/07/22 02:30:39;;;;;;;13.63;7.03;;;;;;;16.28;96.44;101626.78;5001881;28;20120;-79
2021/07/22 02:33:06;;;;;;;14.50;8.13;;;;;;;16.30;96.67;101632.66;5020663;28;20032;-78
2021/07/22 02:35:32;;;;;;;13.98;7.47;;;;;;;16.16;97.07;101641.41;5016704;28;20030;-79
2021/07/22 02:38:34;;;;;;;;;;;;;;;15.79;98.19;101626.13;5014312;28;20080;-79
2021/07/22 02:40:59;;;;;;;11.27;7.03;;;;;;;16.00;98.41;101638.09;5022593;28;19913;-79
2021/07/22 02:43:26;;;;;;;14.27;8.18;;;;;;;16.14;97.38;101624.66;5020066;28;20081;-78
2021/07/22 02:45:52;;;;;;;12.68;7.95;;;;;;;16.13;97.28;101625.03;5017091;28;21692;-79
2021/07/22 02:48:19;;;;;;;13.55;7.75;;;;;;;16.16;97.21;101627.81;5002031;28;20041;-78
2021/07/22 02:50:46;;;;;;;13.15;8.48;;;;;;;16.10;97.44;101631.22;5022108;28;20026;-78
2021/07/22 02:53:13;;;;;;;12.27;7.85;;;;;;;16.03;98.18;101634.63;5022120;28;20044;-79
2021/07/22 02:55:57;;;;;;;12.75;7.25;;;;;;;15.91;98.59;101626.69;4996247;28;20037;-79
2021/07/22 02:58:25;;;;;;;11.90;7.93;;;;;;;15.93;98.71;101629.06;5019165;28;20687;-79
2021/07/22 03:00:52;;;;;;;13.65;8.20;;;;;;;15.50;99.91;101626.84;5013568;28;20165;-79
2021/07/22 03:03:18;;;;;;;15.13;8.07;;;;;;;15.47;100.00;101627.53;5013115;28;20061;-79
2021/07/22 03:05:44;;;;;;;12.40;7.88;;;;;;;15.65;100.00;101628.63;5010982;28;20042;-78
2021/07/22 03:08:11;;;;;;;13.93;8.25;;;;;;;15.68;100.00;101633.34;5017375;28;20037;-79
2021/07/22 03:10:37;;;;;;;15.10;8.68;;;;;;;15.88;99.10;101627.44;4990294;28;20505;-79
2021/07/22 03:13:03;;;;;;;13.35;8.38;;;;;;;15.75;99.94;101625.28;5003381;28;20100;-79
2021/07/22 03:15:33;;;;;;;14.02;7.80;;;;;;;15.74;100.00;101632.66;5014814;28;20029;-78
2021/07/22 03:18:03;;;;;;;13.00;8.00;;;;;;;15.70;99.88;101642.66;5016249;28;20084;-79
2021/07/22 03:20:29;;;;;;;13.00;7.50;;;;;;;15.77;99.66;101636.56;5018345;28;20034;-78
2021/07/22 03:22:56;;;;;;;12.90;8.18;;;;;;;15.87;98.49;101646.81;5016243;28;20033;-78
2021/07/22 03:25:26;;;;;;;12.65;7.80;;;;;;;15.72;98.70;101629.50;5004092;28;20414;-78
2021/07/22 03:28:11;;;;;;;13.73;8.10;;;;;;;15.73;98.86;101631.09;5008289;28;20947;-79
2021/07/22 03:31:12;;;;;;;13.95;8.05;;;;;;;15.67;99.25;101637.19;5004738;28;20113;-78
2021/07/22 03:33:54;;;;;;;17.48;8.20;;;;;;;15.66;99.13;101641.81;4999965;28;20580;-79
2021/07/22 03:36:21;;;;;;;14.85;8.00;;;;;;;15.66;99.11;101636.41;5007942;28;20034;-78
2021/07/22 03:38:56;;;;;;;15.85;8.55;;;;;;;15.77;98.51;101642.78;5004223;28;20033;-78
2021/07/22 03:41:33;;;;;;;13.13;7.90;;;;;;;15.82;98.51;101647.91;5021705;28;20049;-78
2021/07/22 03:44:10;;;;;;;14.60;8.20;;;;;;;15.81;98.58;101637.41;5009060;28;20069;-78
2021/07/22 03:46:36;;;;;;;15.07;7.90;;;;;;;15.75;99.04;101642.38;5016591;28;20022;-79
2021/07/22 03:49:02;;;;;;;17.58;8.52;;;;;;;15.66;99.31;101641.81;5000909;28;20025;-78
2021/07/22 03:51:29;;;;;;;13.48;8.18;;;;;;;15.70;99.65;101642.66;5020328;28;20032;-79
2021/07/22 03:53:55;;;;;;;14.80;8.48;;;;;;;15.60;100.00;101640.56;5008781;28;20038;-78
2021/07/22 03:56:21;;;;;;;16.58;8.35;;;;;;;15.65;100.00;101640.28;5009615;28;20117;-79
2021/07/22 03:59:00;;;;;;;12.63;7.70;;;;;;;15.68;100.00;101642.25;4998564;28;20030;-78
2021/07/22 04:01:30;;;;;;;15.95;8.48;;;;;;;15.75;100.00;101647.81;4995029;28;20038;-78
2021/07/22 04:03:57;;;;;;;13.85;8.88;;;;;;;15.71;100.00;101641.53;5018022;28;20089;-78
2021/07/22 04:06:25;;;;;;;12.82;7.63;;;;;;;15.87;100.00;101644.88;5001918;28;20033;-79
2021/07/22 04:08:51;;;;;;;15.13;8.02;;;;;;;16.02;100.00;101649.38;4997748;28;20113;-78
2021/07/22 04:11:48;;;;;;;16.48;9.00;;;;;;;15.94;100.00;101636.84;5002639;28;20030;-79
2021/07/22 04:14:36;;;;;;;14.15;8.38;;;;;;;15.89;100.00;101645.28;4993505;28;20030;-79
2021/07/22 04:17:17;;;;;;;17.92;8.07;;;;;;;15.87;100.00;101639.44;5016783;28;20055;-79
2021/07/22 04:20:01;;;;;;;13.77;8.02;;;;;;;16.08;100.00;101638.97;5016142;28;20041;-78
2021/07/22 04:22:45;;;;;;;14.57;8.65;;;;;;;16.03;100.00;101639.28;5016343;28;20136;-79
2021/07/22 04:25:33;;;;;;;12.85;8.05;;;;;;;16.14;100.00;101640.97;4998017;28;20038;-79
2021/07/22 04:28:09;;;;;;;15.23;8.00;;;;;;;16.17;100.00;101634.81;5018241;28;20080;-78
2021/07/22 04:30:37;;;;;;;14.52;8.18;;;;;;;16.17;100.00;101626.66;5024873;28;20033;-79
2021/07/22 04:33:11;;;;;;;14.52;8.93;;;;;;;16.21;100.00;101629.44;5007950;28;20041;-78
2021/07/22 04:36:03;;;;;;;13.13;7.25;;;;;;;16.23;100.00;101638.78;5015202;28;20033;-79
2021/07/22 04:38:52;;;;;;;15.68;7.80;;;;;;;16.40;100.00;101637.44;5020074;28;20034;-78
2021/07/22 04:41:26;;;;;;;13.68;8.05;;;;;;;16.57;100.00;101636.13;5015118;28;20108;-79
2021/07/22 04:43:55;;;;;;;12.13;7.32;;;;;;;16.67;100.00;101636.25;5010618;28;20432;-78
2021/07/22 04:46:38;;;;;;;12.38;7.85;;;;;;;16.73;100.00;101634.75;5016477;28;20084;-79
2021/07/22 04:49:18;;;;;;;13.82;8.20;;;;;;;16.79;100.00;101636.00;4998691;28;20038;-78
2021/07/22 04:51:58;;;;;;;14.05;7.40;;;;;;;16.76;100.00;101625.09;5014935;28;20026;-80
2021/07/22 04:54:31;;;;;;;11.23;6.95;;;;;;;16.82;100.00;101631.75;5020487;28;20596;-79
2021/07/22 04:56:57;;;;;;;13.15;8.43;;;;;;;16.94;99.84;101628.75;5017311;28;20042;-79
2021/07/22 04:59:24;;;;;;;14.95;7.68;;;;;;;16.98;99.34;101635.00;5021890;28;20058;-79
2021/07/22 05:01:50;;;;;;;12.60;8.07;;;;;;;17.02;99.08;101633.13;5012008;28;20072;-79
2021/07/22 05:04:18;;;;;;;21.52;8.10;;;;;;;17.14;98.47;101636.38;5017184;28;20443;-79
2021/07/22 05:06:50;;;;;;;10.65;7.43;;;;;;;17.23;97.91;101640.72;4999623;28;20030;-79
2021/07/22 05:09:34;;;;;;;12.27;7.50;;;;;;;17.29;97.61;101633.75;5015503;28;20081;-79
2021/07/22 05:12:09;;;;;;;10.38;7.50;;;;;;;17.36;96.25;101637.34;4998942;28;20026;-79
2021/07/22 05:14:42;;;;;;;13.23;7.28;;;;;;;17.36;95.91;101637.34;5017482;28;20032;-79
2021/07/22 05:17:20;;;;;;;12.02;6.80;;;;;;;17.47;96.22;101638.22;5019131;28;20087;-79
2021/07/22 05:19:57;;;;;;;13.93;7.30;;;;;;;17.53;96.17;101636.72;5003932;28;20029;-79
2021/07/22 05:22:42;;;;;;;13.30;7.55;;;;;;;17.65;95.03;101643.81;5011959;28;20100;-79
2021/07/22 05:25:17;;;;;;;11.18;7.05;;;;;;;17.64;94.52;101640.31;5016324;28;20026;-80
2021/07/22 05:27:54;;;;;;;12.30;6.95;;;;;;;17.66;94.18;101640.72;5020241;28;20092;-79
2021/07/22 05:30:26;;;;;;;12.30;6.75;;;;;;;17.78;94.70;101637.69;5027041;28;20152;-79
2021/07/22 05:32:58;;;;;;;13.55;6.75;;;;;;;17.94;93.72;101637.41;5018486;28;20097;-79
2021/07/22 05:35:42;;;;;;;14.45;7.20;;;;;;;18.00;93.07;101635.88;5016944;28;20061;-80
2021/07/22 05:38:16;;;;;;;15.85;6.75;;;;;;;18.07;92.79;101633.19;5003573;28;20036;-81
2021/07/22 05:40:41;;;;;;;10.02;6.88;;;;;;;18.18;92.73;101628.56;5012306;28;20038;-79
2021/07/22 05:43:06;;;;;;;14.00;6.82;;;;;;;18.29;92.04;101637.56;4999630;28;20092;-80
2021/07/22 05:45:34;;;;;;;10.50;6.50;;;;;;;18.48;91.73;101631.09;5011312;28;20049;-80
2021/07/22 05:47:59;;;;;;;13.80;6.93;;;;;;;18.79;90.30;101639.34;5018864;28;20034;-80
2021/07/22 05:50:26;;;;;;;9.48;6.38;;;;;;;19.13;89.12;101639.81;5014605;28;20034;-80
2021/07/22 05:52:51;;;;;;;10.05;5.28;;;;;;;19.47;86.75;101643.78;5000971;28;20076;-79
2021/07/22 05:55:17;;;;;;;7.97;4.82;;;;;;;19.71;83.09;101634.78;5018304;28;20037;-79
2021/07/22 05:57:42;;;;;;;9.95;4.93;;;;;;;19.96;79.95;101633.94;5022932;28;20057;-79
2021/07/22 06:00:09;;;;;;;7.85;4.68;;;;;;;20.32;80.56;101643.66;5014430;28;20041;-79
2021/07/22 06:02:38;;;;;;;8.85;4.35;;;;;;;20.78;78.34;101641.50;5020476;28;20045;-78
2021/07/22 06:05:05;;;;;;;6.43;4.07;;;;;;;21.20;76.28;101644.00;5038612;28;20026;-79
2021/07/22 06:07:30;;;;;;;7.13;4.03;;;;;;;21.36;74.39;101644.25;5001096;28;20041;-81
2021/07/22 06:09:56;;;;;;;6.60;4.82;;;;;;;21.73;73.42;101642.75;5006270;28;20138;-81
2021/07/22 06:12:22;;;;;;;7.38;4.38;;;;;;;22.01;71.36;101640.53;5041188;23;20095;-76
2021/07/22 06:14:47;;;;;;;11.55;4.13;;;;;;;22.21;66.02;101644.25;5032329;28;20037;-75
2021/07/22 06:17:12;;;;;;;6.53;3.70;;;;;;;22.38;66.91;101637.75;5047436;28;20029;-75
2021/07/22 06:19:38;;;;;;;6.20;3.50;;;;;;;22.45;64.62;101631.41;5029688;28;20643;-75
2021/07/22 06:22:03;;;;;;;12.07;3.72;;;;;;;22.55;64.51;101635.97;5028288;28;20045;-75
2021/07/22 06:24:29;;;;;;;6.43;3.38;;;;;;;22.74;64.04;101640.09;5027213;28;20059;-75
2021/07/22 06:26:54;;;;;;;3.90;3.20;;;;;;;22.69;62.71;101640.53;5032759;28;20030;-75
2021/07/22 06:29:20;;;;;;;5.72;3.20;;;;;;;22.77;63.35;101642.78;5035335;28;20041;-75
2021/07/22 06:31:45;;;;;;;6.68;3.40;;;;;;;22.67;63.15;101632.72;5031968;28;20033;-75
2021/07/22 06:34:11;;;;;;;4.50;3.25;;;;;;;22.63;62.73;101636.72;5032581;28;20128;-76
2021/07/22 06:36:37;;;;;;;10.63;3.80;;;;;;;22.68;62.19;101634.28;5012818;28;20575;-75
2021/07/22 06:39:03;;;;;;;7.13;3.55;;;;;;;22.74;63.50;101638.13;5021834;28;20172;-75
2021/07/22 06:41:28;;;;;;;8.38;3.65;;;;;;;22.87;62.82;101639.09;5044046;28;20112;-75
2021/07/22 06:43:54;;;;;;;5.05;3.60;;;;;;;22.83;61.75;101632.09;5029783;28;20489;-75
2021/07/22 06:46:19;;;;;;;8.65;4.25;;;;;;;22.81;61.20;101632.53;5026427;28;20489;-75
2021/07/22 06:48:47;;;;;;;11.77;3.50;;;;;;;22.86;62.03;101634.03;5031180;28;20466;-75
2021/07/22 06:51:13;;;;;;;8.98;3.97;;;;;;;22.90;63.35;101637.50;5025419;28;20049;-75
2021/07/22 06:53:38;;;;;;;9.18;3.80;;;;;;;22.95;62.85;101629.56;5031456;28;20037;-73
2021/07/22 06:56:04;;;;;;;6.47;3.42;;;;;;;23.01;62.83;101633.41;5033803;28;20037;-74
2021/07/22 06:58:29;;;;;;;4.82;3.17;;;;;;;22.97;60.90;101632.69;5033845;28;20514;-74
2021/07/22 07:00:55;;;;;;;3.78;2.72;;;;;;;23.07;60.39;101639.22;5031806;28;20060;-74
2021/07/22 07:03:20;;;;;;;7.35;3.38;;;;;;;23.17;59.68;101636.28;5029830;28;20034;-74
2021/07/22 07:05:47;;;;;;;10.43;3.55;;;;;;;23.30;62.18;101636.50;5042486;28;20032;-74
2021/07/22 07:08:12;;;;;;;5.90;3.13;;;;;;;23.33;62.68;101632.94;5023232;28;20038;-75
2021/07/22 07:10:38;;;;;;;5.38;3.47;;;;;;;23.17;58.53;101638.28;5028262;28;20071;-74
2021/07/22 07:13:03;;;;;;;7.35;3.40;;;;;;;23.20;60.42;101635.47;5030967;28;20060;-74
2021/07/22 07:15:29;;;;;;;6.57;3.38;;;;;;;23.26;61.00;101636.56;5032313;28;20087;-74
2021/07/22 07:17:57;;;;;;;6.82;3.85;;;;;;;23.16;61.93;101626.50;5038885;28;20025;-75
2021/07/22 07:20:23;;;;;;;8.27;3.92;;;;;;;23.11;62.48;101640.69;5027591;28;20038;-74
2021/07/22 07:22:53;;;;;;;5.45;3.42;;;;;;;22.81;61.63;101635.25;5029999;28;20036;-74
2021/07/22 07:25:19;;;;;;;7.05;3.20;;;;;;;22.60;62.78;101641.06;5031234;28;20029;-74
2021/07/22 07:27:44;;;;;;;8.77;3.63;;;;;;;22.71;61.70;101638.16;5028184;28;20036;-75
2021/07/22 07:30:10;;;;;;;10.23;3.60;;;;;;;22.61;63.36;101633.59;5031379;28;20492;-75
2021/07/22 07:32:36;;;;;;;7.65;3.85;;;;;;;22.61;63.91;101633.59;5028808;28;20710;-75
2021/07/22 07:35:02;;;;;;;3.83;3.42;;;;;;;22.74;62.92;101632.63;5030847;28;20040;-75
2021/07/22 07:37:29;;;;;;;7.82;3.72;;;;;;;23.00;63.20;101628.31;5029865;28;20050;-75
2021/07/22 07:39:55;;;;;;;6.75;3.40;;;;;;;23.22;61.07;101632.31;5030108;28;20079;-75
2021/07/22 07:42:20;;;;;;;9.23;3.60;;;;;;;23.38;61.10;101637.19;5024709;28;20041;-75
2021/07/22 07:44:46;;;;;;;5.85;3.45;;;;;;;23.39;59.93;101630.47;5024484;28;20026;-75
2021/07/22 07:47:11;;;;;;;7.78;3.67;;;;;;;23.20;61.35;101634.69;5023062;28;20490;-75
2021/07/22 07:49:37;;;;;;;10.40;3.72;;;;;;;22.87;61.87;101641.84;5025328;28;20026;-74
2021/07/22 07:52:02;;;;;;;8.40;3.30;;;;;;;22.82;63.02;101647.03;5028860;28;20033;-75
2021/07/22 07:54:28;;;;;;;7.00;3.60;;;;;;;22.77;63.34;101647.50;5028267;28;20084;-75
2021/07/22 07:56:53;;;;;;;7.35;3.40;;;;;;;22.86;62.54;101639.53;5027582;28;20029;-74
2021/07/22 07:59:19;;;;;;;5.43;3.78;;;;;;;22.80;62.82;101644.69;5031079;28;20045;-74
2021/07/22 08:01:44;;;;;;;7.00;3.50;;;;;;;22.81;62.97;101643.50;5022412;28;20060;-74
2021/07/22 08:04:10;;;;;;;7.43;3.85;;;;;;;22.69;64.37;101640.53;5023380;28;20490;-75
2021/07/22 08:06:36;;;;;;;7.22;3.42;;;;;;;22.71;64.00;101647.19;5020710;28;20037;-75
2021/07/22 08:09:01;;;;;;;5.72;3.55;;;;;;;22.73;62.18;101642.03;5030873;28;20395;-74
2021/07/22 08:11:27;;;;;;;4.45;3.47;;;;;;;22.56;61.93;101632.06;5025402;28;20033;-74
2021/07/22 08:13:52;;;;;;;5.32;3.20;;;;;;;22.80;63.83;101641.94;5025661;28;20481;-75
2021/07/22 08:16:18;;;;;;;5.18;3.38;;;;;;;22.88;63.11;101635.16;5037317;28;20044;-75
2021/07/22 08:18:46;;;;;;;8.15;3.50;;;;;;;22.96;62.56;101641.31;5041533;28;20052;-75
2021/07/22 08:21:14;;;;;;;7.07;3.90;;;;;;;22.85;64.65;101635.22;5030577;28;20034;-75
2021/07/22 08:23:41;;;;;;;6.00;3.40;;;;;;;22.91;62.85;101637.09;5024913;28;20034;-75
2021/07/22 08:26:06;;;;;;;6.32;3.50;;;;;;;22.92;63.01;101638.63;5026021;28;20048;-75
2021/07/22 08:28:33;;;;;;;7.53;3.30;;;;;;;22.98;63.15;101636.19;5027254;28;20041;-75
2021/07/22 08:30:59;;;;;;;6.45;3.40;;;;;;;22.72;61.08;101624.03;5023475;28;20037;-75
2021/07/22 08:33:25;;;;;;;5.60;3.47;;;;;;;22.52;63.62;101627.78;5022640;28;20029;-75
2021/07/22 08:35:50;;;;;;;6.85;3.78;;;;;;;22.64;63.13;101633.53;5024109;28;20489;-75
2021/07/22 08:38:16;;;;;;;6.18;3.40;;;;;;;22.84;62.39;101634.44;5028519;28;20041;-75
2021/07/22 08:40:42;;;;;;;10.20;3.80;;;;;;;22.88;63.89;101637.91;5035123;28;20030;-75
2021/07/22 08:43:08;;;;;;;6.40;3.63;;;;;;;22.87;64.54;101630.88;5025042;28;20041;-74
2021/07/22 08:45:33;;;;;;;4.35;3.45;;;;;;;22.98;63.59;101634.22;5029160;28;20048;-74
2021/07/22 08:47:59;;;;;;;8.55;3.50;;;;;;;22.87;62.89;101621.84;5030468;28;20074;-74
2021/07/22 08:50:25;;;;;;;6.97;3.28;;;;;;;22.82;62.58;101630.56;5029537;28;20088;-74
2021/07/22 08:52:51;;;;;;;5.47;3.47;;;;;;;22.96;61.62;101619.34;5023712;28;20041;-74
2021/07/22 08:55:17;;;;;;;9.45;3.70;;;;;;;22.85;62.85;101619.50;5023356;28;20039;-74
2021/07/22 08:57:44;;;;;;;9.18;3.20;;;;;;;22.85;61.57;101616.75;5021775;28;20026;-75
2021/07/22 09:00:10;;;;;;;7.80;3.33;;;;;;;22.84;61.61;101628.19;5016078;28;20038;-74
2021/07/22 09:02:36;;;;;;;7.60;3.75;;;;;;;22.89;62.68;101616.72;5018897;28;20077;-75
2021/07/22 09:05:04;;;;;;;6.38;3.70;;;;;;;23.12;62.89;101623.03;5024875;28;20057;-75
2021/07/22 09:07:31;;;;;;;13.93;7.13;;;;;;;23.15;62.92;101618.69;5013743;28;20029;-74
2021/07/22 09:10:06;;;;;;;8.38;4.18;;;;;;;23.35;60.89;101613.25;5014130;28;20041;-74
2021/07/22 09:12:49;;;;;;;7.93;4.20;;;;;;;23.36;59.87;101609.31;5011871;28;20112;-75
2021/07/22 09:15:22;;;;;;;6.90;3.80;;;;;;;23.37;61.26;101611.66;5028004;28;20033;-74
2021/07/22 09:17:48;;;;;;;5.88;3.70;;;;;;;23.45;61.58;101615.84;5020458;28;20034;-74
2021/07/22 09:20:27;;;;;;;6.20;3.38;;;;;;;23.36;61.35;101617.56;5033114;28;20052;-74
2021/07/22 09:22:52;;;;;;;8.57;3.85;;;;;;;23.35;62.31;101616.78;5002719;28;20045;-74
2021/07/22 09:25:18;;;;;;;4.50;3.17;;;;;;;23.39;62.78;101603.75;5023523;28;20030;-74
2021/07/22 09:27:45;;;;;;;5.75;3.33;;;;;;;23.22;61.93;101611.09;5018320;28;20160;-74
2021/07/22 09:30:19;;;;;;;14.20;4.03;;;;;;;23.23;61.66;101615.38;5017487;28;20167;-74
2021/07/22 09:32:50;;;;;;;5.88;3.63;;;;;;;23.30;62.51;101609.78;5021470;28;20498;-75
2021/07/22 09:35:20;;;;;;;11.25;3.55;;;;;;;23.24;62.21;101616.94;5029427;28;20391;-74
2021/07/22 09:37:50;;;;;;;5.53;3.60;;;;;;;23.15;63.30;101613.19;5029248;28;20042;-75
2021/07/22 09:40:18;;;;;;;4.23;3.50;;;;;;;23.19;63.12;101609.16;5019843;28;20051;-75
2021/07/22 09:42:45;;;;;;;6.13;4.28;;;;;;;23.21;62.72;101609.53;5024764;28;20029;-75
2021/07/22 09:45:18;;;;;;;12.30;3.88;;;;;;;23.23;62.83;101615.38;5020116;28;20084;-75
2021/07/22 09:47:45;;;;;;;10.73;3.78;;;;;;;23.20;62.50;101616.22;5021489;28;20045;-75
2021/07/22 09:50:15;;;;;;;6.35;3.60;;;;;;;23.36;60.99;101606.56;5019283;28;20371;-74
2021/07/22 09:52:45;;;;;;;6.03;3.63;;;;;;;23.26;62.34;101611.03;5027466;28;20033;-75
2021/07/22 09:55:24;;;;;;;8.25;4.10;;;;;;;23.10;62.70;101608.91;5019339;28;20388;-75
2021/07/22 09:57:55;;;;;;;7.43;4.10;;;;;;;23.40;61.98;101610.81;5028501;28;20034;-75
2021/07/22 10:00:21;;;;;;;8.73;3.80;;;;;;;23.41;62.84;101609.63;5016794;28;20657;-75
2021/07/22 10:02:50;;;;;;;8.52;3.88;;;;;;;23.32;61.97;101611.34;5038033;28;20034;-75
2021/07/22 10:05:17;;;;;;;5.28;3.88;;;;;;;23.36;61.60;101603.81;5018822;28;20041;-75
2021/07/22 10:07:44;;;;;;;6.60;4.63;;;;;;;23.45;61.34;101607.59;5025707;28;20040;-75
2021/07/22 10:10:12;;;;;;;12.10;4.40;;;;;;;23.66;59.42;101612.72;5025642;28;20038;-75
2021/07/22 10:12:43;;;;;;;4.95;3.85;;;;;;;23.62;59.78;101608.47;5016946;28;20064;-75
2021/07/22 10:15:09;;;;;;;6.90;3.97;;;;;;;23.36;59.52;101601.84;5027268;28;20129;-75
2021/07/22 10:17:35;;;;;;;6.03;3.90;;;;;;;23.40;60.65;101599.81;5028466;28;20120;-75
2021/07/22 10:20:04;;;;;;;8.20;4.05;;;;;;;23.43;60.49;101600.94;5023849;28;20029;-75
2021/07/22 10:22:31;;;;;;;4.70;3.88;;;;;;;23.39;61.45;101606.50;5021661;28;20030;-75
2021/07/22 10:24:57;;;;;;;5.47;3.90;;;;;;;23.44;59.83;101602.50;5017781;28;20038;-75
2021/07/22 10:27:24;;;;;;;4.93;3.47;;;;;;;23.49;58.87;101599.28;5031291;28;20036;-76
2021/07/22 10:29:50;;;;;;;5.43;3.75;;;;;;;23.50;58.39;101606.34;5028109;28;20636;-75
2021/07/22 10:32:17;;;;;;;6.70;3.78;;;;;;;23.56;58.83;101602.66;5018936;28;20033;-75
2021/07/22 10:34:44;;;;;;;7.60;3.60;;;;;;;23.60;58.72;101589.63;5026574;28;20025;-76
2021/07/22 10:37:10;;;;;;;4.30;3.65;;;;;;;23.53;59.78;101589.78;5025003;28;20448;-75
2021/07/22 10:40:05;;;;;;;6.93;4.30;;;;;;;23.54;58.43;101591.31;5018607;28;20034;-76
2021/07/22 10:42:46;;;;;;;11.50;4.15;;;;;;;23.51;60.57;101596.88;5023658;28;20115;-75
2021/07/22 10:45:32;;;;;;;7.70;3.65;;;;;;;23.45;61.05;101593.84;5031458;28;20118;-76
2021/07/22 10:48:07;;;;;;;5.90;3.53;;;;;;;23.62;59.52;101589.19;5019301;28;20567;-75
2021/07/22 10:50:42;;;;;;;6.97;3.72;;;;;;;23.69;58.62;101586.34;5034403;28;20040;-75
2021/07/22 10:53:10;;;;;;;7.93;3.15;;;;;;;23.64;59.51;101582.09;5023432;28;20591;-75
2021/07/22 10:55:41;;;;;;;9.13;3.50;;;;;;;23.68;60.18;101590.28;5024108;28;20038;-75
2021/07/22 10:58:34;;;;;;;9.43;3.22;;;;;;;23.76;57.92;101588.94;5034948;28;20038;-76
2021/07/22 11:01:06;;;;;;;4.65;3.53;;;;;;;23.77;57.68;101591.28;5027404;28;20124;-75
2021/07/22 11:03:38;;;;;;;5.55;3.58;;;;;;;23.84;58.17;101585.66;5026562;28;20747;-75
2021/07/22 11:06:05;;;;;;;7.93;3.60;;;;;;;23.82;59.69;101588.03;5019905;28;20029;-75
2021/07/22 11:08:32;;;;;;;8.85;3.50;;;;;;;23.92;59.42;101589.03;5029744;28;20033;-75
2021/07/22 11:11:15;;;;;;;4.38;3.58;;;;;;;24.00;57.52;101573.94;5017683;28;20548;-76
2021/07/22 11:13:44;;;;;;;6.55;3.65;;;;;;;23.99;59.05;101581.41;5012089;28;20038;-75
2021/07/22 11:16:31;;;;;;;5.40;3.60;;;;;;;24.15;58.52;101583.50;5003096;28;20076;-75
2021/07/22 11:18:57;;;;;;;8.35;4.10;;;;;;;24.23;57.47;101578.59;5015190;28;20037;-75
2021/07/22 11:21:33;;;;;;;9.02;3.90;;;;;;;24.12;57.11;101587.06;5027315;28;20125;-75
2021/07/22 11:24:16;;;;;;;5.32;3.80;;;;;;;24.10;58.65;101581.22;5018282;28;20124;-75
2021/07/22 11:26:42;;;;;;;8.20;3.50;;;;;;;24.07;58.05;101580.09;5035359;28;20030;-75
2021/07/22 11:29:09;;;;;;;8.32;4.43;;;;;;;24.07;57.77;101587.59;5026123;28;20569;-75